sensor_id;sensor_type;location;lat;lon;timestamp;temperature;humidity
39347;DHT22;26262;49.836;6.632;2023-04-15T00:00:23;5.60;99.90
39347;DHT22;26262;49.836;6.632;2023-04-15T00:02:50;5.40;99.90
39347;DHT22;26262;49.836;6.632;2023-04-15T00:05:15;5.50;99.90
39347;DHT22;26262;49.836;6.632;2023-04-15T00:07:41;5.60;99.90
39347;DHT22;26262;49.836;6.632;2023-04-15T00:10:07;5.70;99.90
39347;DHT22;26262;49.836;6.632;2023-04-15T00:12:33;5.70;99.90
39347;DHT22;26262;49.836;6.632;2023-04-15T00:14:58;5.80;99.90
39347;DHT22;26262;49.836;6.632;2023-04-15T00:17:24;5.50;99.90
39347;DHT22;26262;49.836;6.632;2023-04-15T00:19:50;5.30;99.90
39347;DHT22;26262;49.836;6.632;2023-04-15T00:22:15;5.40;99.90
39347;DHT22;26262;49.836;6.632;2023-04-15T00:24:42;5.40;99.90
39347;DHT22;26262;49.836;6.632;2023-04-15T00:27:07;5.50;99.90
39347;DHT22;26262;49.836;6.632;2023-04-15T00:29:33;5.60;99.90
39347;DHT22;26262;49.836;6.632;2023-04-15T00:31:59;5.70;99.90
39347;DHT22;26262;49.836;6.632;2023-04-15T00:34:26;5.80;99.90
39347;DHT22;26262;49.836;6.632;2023-04-15T00:36:52;5.80;99.90
39347;DHT22;26262;49.836;6.632;2023-04-15T00:39:18;5.60;99.90
39347;DHT22;26262;49.836;6.632;2023-04-15T00:41:44;5.50;99.90
39347;DHT22;26262;49.836;6.632;2023-04-15T00:44:10;5.30;99.90
39347;DHT22;26262;49.836;6.632;2023-04-15T00:46:36;5.10;99.90
39347;DHT22;26262;49.836;6.632;2023-04-15T00:49:06;5.20;99.90
39347;DHT22;26262;49.836;6.632;2023-04-15T00:51:35;5.40;99.90
39347;DHT22;26262;49.836;6.632;2023-04-15T00:54:04;5.50;99.90
39347;DHT22;26262;49.836;6.632;2023-04-15T00:56:34;5.60;99.90
39347;DHT22;26262;49.836;6.632;2023-04-15T00:59:00;5.10;99.90
39347;DHT22;26262;49.836;6.632;2023-04-15T01:01:27;5.00;99.90
39347;DHT22;26262;49.836;6.632;2023-04-15T01:03:55;4.90;99.90
39347;DHT22;26262;49.836;6.632;2023-04-15T01:06:22;5.10;99.90
39347;DHT22;26262;49.836;6.632;2023-04-15T01:08:47;5.00;99.90
39347;DHT22;26262;49.836;6.632;2023-04-15T01:11:13;5.10;99.90
39347;DHT22;26262;49.836;6.632;2023-04-15T01:13:39;5.10;99.90
39347;DHT22;26262;49.836;6.632;2023-04-15T01:16:06;5.20;99.90
39347;DHT22;26262;49.836;6.632;2023-04-15T01:18:33;5.30;99.90
39347;DHT22;26262;49.836;6.632;2023-04-15T01:21:03;5.40;99.90
39347;DHT22;26262;49.836;6.632;2023-04-15T01:23:29;5.40;99.90
39347;DHT22;26262;49.836;6.632;2023-04-15T01:25:55;5.40;99.90
39347;DHT22;26262;49.836;6.632;2023-04-15T01:28:21;5.50;99.90
39347;DHT22;26262;49.836;6.632;2023-04-15T01:30:47;5.50;99.90
39347;DHT22;26262;49.836;6.632;2023-04-15T01:33:13;5.60;99.90
39347;DHT22;26262;49.836;6.632;2023-04-15T01:35:38;5.30;99.90
39347;DHT22;26262;49.836;6.632;2023-04-15T01:38:06;5.30;99.90
39347;DHT22;26262;49.836;6.632;2023-04-15T01:40:33;5.20;99.90
39347;DHT22;26262;49.836;6.632;2023-04-15T01:42:59;5.10;99.90
39347;DHT22;26262;49.836;6.632;2023-04-15T01:45:25;5.20;99.90
39347;DHT22;26262;49.836;6.632;2023-04-15T01:47:51;5.20;99.90
39347;DHT22;26262;49.836;6.632;2023-04-15T01:50:17;5.30;99.90
39347;DHT22;26262;49.836;6.632;2023-04-15T01:52:43;5.40;99.90
39347;DHT22;26262;49.836;6.632;2023-04-15T01:55:10;5.40;99.90
39347;DHT22;26262;49.836;6.632;2023-04-15T01:57:35;5.40;99.90
39347;DHT22;26262;49.836;6.632;2023-04-15T02:00:01;5.50;99.90
39347;DHT22;26262;49.836;6.632;2023-04-15T02:02:28;5.60;99.90
39347;DHT22;26262;49.836;6.632;2023-04-15T02:04:53;5.60;99.90
39347;DHT22;26262;49.836;6.632;2023-04-15T02:07:19;5.60;99.90
39347;DHT22;26262;49.836;6.632;2023-04-15T02:09:44;5.70;99.90
39347;DHT22;26262;49.836;6.632;2023-04-15T02:12:10;5.60;99.90
39347;DHT22;26262;49.836;6.632;2023-04-15T02:14:36;5.70;99.90
39347;DHT22;26262;49.836;6.632;2023-04-15T02:17:01;5.60;99.90
39347;DHT22;26262;49.836;6.632;2023-04-15T02:19:32;5.70;99.90
39347;DHT22;26262;49.836;6.632;2023-04-15T02:21:58;5.50;99.90
39347;DHT22;26262;49.836;6.632;2023-04-15T02:24:24;5.10;99.90
39347;DHT22;26262;49.836;6.632;2023-04-15T02:26:49;5.00;99.90
39347;DHT22;26262;49.836;6.632;2023-04-15T02:29:15;5.10;99.90
39347;DHT22;26262;49.836;6.632;2023-04-15T02:31:40;5.30;99.90
39347;DHT22;26262;49.836;6.632;2023-04-15T02:34:06;5.40;99.90
39347;DHT22;26262;49.836;6.632;2023-04-15T02:36:32;5.50;99.90
39347;DHT22;26262;49.836;6.632;2023-04-15T02:38:59;5.50;99.90
39347;DHT22;26262;49.836;6.632;2023-04-15T02:41:25;5.20;99.90
39347;DHT22;26262;49.836;6.632;2023-04-15T02:43:53;5.20;99.90
39347;DHT22;26262;49.836;6.632;2023-04-15T02:46:18;5.20;99.90
39347;DHT22;26262;49.836;6.632;2023-04-15T02:48:44;5.00;99.90
39347;DHT22;26262;49.836;6.632;2023-04-15T02:51:20;5.10;99.90
39347;DHT22;26262;49.836;6.632;2023-04-15T02:53:47;5.30;99.90
39347;DHT22;26262;49.836;6.632;2023-04-15T02:56:13;5.30;99.90
39347;DHT22;26262;49.836;6.632;2023-04-15T02:58:40;5.30;99.90
39347;DHT22;26262;49.836;6.632;2023-04-15T03:01:06;5.30;99.90
39347;DHT22;26262;49.836;6.632;2023-04-15T03:03:33;5.30;99.90
39347;DHT22;26262;49.836;6.632;2023-04-15T03:05:59;5.10;99.90
39347;DHT22;26262;49.836;6.632;2023-04-15T03:08:24;5.20;99.90
39347;DHT22;26262;49.836;6.632;2023-04-15T03:10:50;4.90;99.90
39347;DHT22;26262;49.836;6.632;2023-04-15T03:13:17;4.90;99.90
39347;DHT22;26262;49.836;6.632;2023-04-15T03:15:45;4.70;99.90
39347;DHT22;26262;49.836;6.632;2023-04-15T03:18:10;4.80;99.90
39347;DHT22;26262;49.836;6.632;2023-04-15T03:20:36;4.80;99.90
39347;DHT22;26262;49.836;6.632;2023-04-15T03:23:01;4.90;99.90
39347;DHT22;26262;49.836;6.632;2023-04-15T03:25:27;5.10;99.90
39347;DHT22;26262;49.836;6.632;2023-04-15T03:27:53;4.80;99.90
39347;DHT22;26262;49.836;6.632;2023-04-15T03:30:18;4.90;99.90
39347;DHT22;26262;49.836;6.632;2023-04-15T03:32:44;5.10;99.90
39347;DHT22;26262;49.836;6.632;2023-04-15T03:35:09;5.20;99.90
39347;DHT22;26262;49.836;6.632;2023-04-15T03:37:35;5.40;99.90
39347;DHT22;26262;49.836;6.632;2023-04-15T03:40:01;5.50;99.90
39347;DHT22;26262;49.836;6.632;2023-04-15T03:42:26;5.50;99.90
39347;DHT22;26262;49.836;6.632;2023-04-15T03:44:52;5.60;99.90
39347;DHT22;26262;49.836;6.632;2023-04-15T03:47:17;5.60;99.90
39347;DHT22;26262;49.836;6.632;2023-04-15T03:49:43;5.40;99.90
39347;DHT22;26262;49.836;6.632;2023-04-15T03:52:08;5.30;99.90
39347;DHT22;26262;49.836;6.632;2023-04-15T03:54:34;5.40;99.90
39347;DHT22;26262;49.836;6.632;2023-04-15T03:56:59;5.40;99.90
39347;DHT22;26262;49.836;6.632;2023-04-15T03:59:25;5.30;99.90
39347;DHT22;26262;49.836;6.632;2023-04-15T04:01:51;5.30;99.90
39347;DHT22;26262;49.836;6.632;2023-04-15T04:04:16;5.30;99.90
39347;DHT22;26262;49.836;6.632;2023-04-15T04:06:42;5.40;99.90
39347;DHT22;26262;49.836;6.632;2023-04-15T04:09:07;5.50;99.90
39347;DHT22;26262;49.836;6.632;2023-04-15T04:11:33;5.50;99.90
39347;DHT22;26262;49.836;6.632;2023-04-15T04:13:58;5.60;99.90
39347;DHT22;26262;49.836;6.632;2023-04-15T04:16:24;5.60;99.90
39347;DHT22;26262;49.836;6.632;2023-04-15T04:18:49;5.60;99.90
39347;DHT22;26262;49.836;6.632;2023-04-15T04:21:15;5.60;99.90
39347;DHT22;26262;49.836;6.632;2023-04-15T04:23:41;5.50;99.90
39347;DHT22;26262;49.836;6.632;2023-04-15T04:26:07;5.40;99.90
39347;DHT22;26262;49.836;6.632;2023-04-15T04:28:32;5.40;99.90
39347;DHT22;26262;49.836;6.632;2023-04-15T04:30:59;5.50;99.90
39347;DHT22;26262;49.836;6.632;2023-04-15T04:33:25;5.60;99.90
39347;DHT22;26262;49.836;6.632;2023-04-15T04:35:50;5.60;99.90
39347;DHT22;26262;49.836;6.632;2023-04-15T04:38:16;5.30;99.90
39347;DHT22;26262;49.836;6.632;2023-04-15T04:40:41;5.10;99.90
39347;DHT22;26262;49.836;6.632;2023-04-15T04:43:07;5.20;99.90
39347;DHT22;26262;49.836;6.632;2023-04-15T04:45:33;5.30;99.90
39347;DHT22;26262;49.836;6.632;2023-04-15T04:47:59;5.40;99.90
39347;DHT22;26262;49.836;6.632;2023-04-15T04:50:24;5.50;99.90
39347;DHT22;26262;49.836;6.632;2023-04-15T04:52:50;5.50;99.90
39347;DHT22;26262;49.836;6.632;2023-04-15T04:55:16;5.10;99.90
39347;DHT22;26262;49.836;6.632;2023-04-15T04:57:41;4.90;99.90
39347;DHT22;26262;49.836;6.632;2023-04-15T05:00:07;4.90;99.90
39347;DHT22;26262;49.836;6.632;2023-04-15T05:02:33;5.10;99.90
39347;DHT22;26262;49.836;6.632;2023-04-15T05:04:59;5.20;99.90
39347;DHT22;26262;49.836;6.632;2023-04-15T05:07:25;5.30;99.90
39347;DHT22;26262;49.836;6.632;2023-04-15T05:09:51;5.40;99.90
39347;DHT22;26262;49.836;6.632;2023-04-15T05:12:17;5.50;99.90
39347;DHT22;26262;49.836;6.632;2023-04-15T05:14:43;5.50;99.90
39347;DHT22;26262;49.836;6.632;2023-04-15T05:17:08;5.60;99.90
39347;DHT22;26262;49.836;6.632;2023-04-15T05:19:34;5.70;99.90
39347;DHT22;26262;49.836;6.632;2023-04-15T05:22:00;5.70;99.90
39347;DHT22;26262;49.836;6.632;2023-04-15T05:24:25;5.70;99.90
39347;DHT22;26262;49.836;6.632;2023-04-15T05:26:51;5.70;99.90
39347;DHT22;26262;49.836;6.632;2023-04-15T05:29:17;5.80;99.90
39347;DHT22;26262;49.836;6.632;2023-04-15T05:31:42;5.80;99.90
39347;DHT22;26262;49.836;6.632;2023-04-15T05:34:08;5.80;99.90
39347;DHT22;26262;49.836;6.632;2023-04-15T05:36:34;5.90;99.90
39347;DHT22;26262;49.836;6.632;2023-04-15T05:39:00;5.90;99.90
39347;DHT22;26262;49.836;6.632;2023-04-15T05:41:26;5.80;99.90
39347;DHT22;26262;49.836;6.632;2023-04-15T05:43:51;5.80;99.90
39347;DHT22;26262;49.836;6.632;2023-04-15T05:46:17;5.80;99.90
39347;DHT22;26262;49.836;6.632;2023-04-15T05:48:43;5.90;99.90
39347;DHT22;26262;49.836;6.632;2023-04-15T05:51:08;5.90;99.90
39347;DHT22;26262;49.836;6.632;2023-04-15T05:53:34;5.90;99.90
39347;DHT22;26262;49.836;6.632;2023-04-15T05:56:00;5.60;99.90
39347;DHT22;26262;49.836;6.632;2023-04-15T05:58:25;5.70;99.90
39347;DHT22;26262;49.836;6.632;2023-04-15T06:00:51;5.70;99.90
39347;DHT22;26262;49.836;6.632;2023-04-15T06:03:17;5.80;99.90
39347;DHT22;26262;49.836;6.632;2023-04-15T06:05:43;5.80;99.90
39347;DHT22;26262;49.836;6.632;2023-04-15T06:08:09;5.80;99.90
39347;DHT22;26262;49.836;6.632;2023-04-15T06:10:35;5.80;99.90
39347;DHT22;26262;49.836;6.632;2023-04-15T06:13:02;5.90;99.90
39347;DHT22;26262;49.836;6.632;2023-04-15T06:15:28;5.70;99.90
39347;DHT22;26262;49.836;6.632;2023-04-15T06:17:54;5.80;99.90
39347;DHT22;26262;49.836;6.632;2023-04-15T06:20:19;5.90;99.90
39347;DHT22;26262;49.836;6.632;2023-04-15T06:22:45;6.00;99.90
39347;DHT22;26262;49.836;6.632;2023-04-15T06:25:11;6.10;99.90
39347;DHT22;26262;49.836;6.632;2023-04-15T06:27:36;6.00;99.90
39347;DHT22;26262;49.836;6.632;2023-04-15T06:30:03;5.90;99.90
39347;DHT22;26262;49.836;6.632;2023-04-15T06:32:29;5.90;99.90
39347;DHT22;26262;49.836;6.632;2023-04-15T06:34:54;6.10;99.90
39347;DHT22;26262;49.836;6.632;2023-04-15T06:37:20;6.10;99.90
39347;DHT22;26262;49.836;6.632;2023-04-15T06:39:46;5.90;99.90
39347;DHT22;26262;49.836;6.632;2023-04-15T06:42:12;5.90;99.90
39347;DHT22;26262;49.836;6.632;2023-04-15T06:44:38;6.00;99.90
39347;DHT22;26262;49.836;6.632;2023-04-15T06:47:03;6.00;99.90
39347;DHT22;26262;49.836;6.632;2023-04-15T06:49:29;6.10;99.90
39347;DHT22;26262;49.836;6.632;2023-04-15T06:51:54;5.90;99.90
39347;DHT22;26262;49.836;6.632;2023-04-15T06:54:20;6.10;99.90
39347;DHT22;26262;49.836;6.632;2023-04-15T06:56:46;6.20;99.90
39347;DHT22;26262;49.836;6.632;2023-04-15T06:59:12;6.00;99.90
39347;DHT22;26262;49.836;6.632;2023-04-15T07:01:39;6.10;99.90
39347;DHT22;26262;49.836;6.632;2023-04-15T07:04:06;6.20;99.90
39347;DHT22;26262;49.836;6.632;2023-04-15T07:06:31;6.20;99.90
39347;DHT22;26262;49.836;6.632;2023-04-15T07:08:58;6.30;99.90
39347;DHT22;26262;49.836;6.632;2023-04-15T07:11:25;6.40;99.90
39347;DHT22;26262;49.836;6.632;2023-04-15T07:13:50;6.50;99.90
39347;DHT22;26262;49.836;6.632;2023-04-15T07:16:16;6.40;99.90
39347;DHT22;26262;49.836;6.632;2023-04-15T07:18:42;6.40;99.90
39347;DHT22;26262;49.836;6.632;2023-04-15T07:21:08;6.50;99.90
39347;DHT22;26262;49.836;6.632;2023-04-15T07:23:34;6.70;99.90
39347;DHT22;26262;49.836;6.632;2023-04-15T07:25:59;6.80;99.90
39347;DHT22;26262;49.836;6.632;2023-04-15T07:28:26;6.90;99.90
39347;DHT22;26262;49.836;6.632;2023-04-15T07:30:51;7.10;99.90
39347;DHT22;26262;49.836;6.632;2023-04-15T07:33:17;7.10;99.90
39347;DHT22;26262;49.836;6.632;2023-04-15T07:35:42;7.10;99.90
39347;DHT22;26262;49.836;6.632;2023-04-15T07:38:08;7.20;99.90
39347;DHT22;26262;49.836;6.632;2023-04-15T07:40:33;7.30;99.90
39347;DHT22;26262;49.836;6.632;2023-04-15T07:42:59;7.40;99.90
39347;DHT22;26262;49.836;6.632;2023-04-15T07:45:24;7.50;99.90
39347;DHT22;26262;49.836;6.632;2023-04-15T07:47:50;7.60;99.90
39347;DHT22;26262;49.836;6.632;2023-04-15T07:50:16;7.70;99.90
39347;DHT22;26262;49.836;6.632;2023-04-15T07:52:42;7.90;99.90
39347;DHT22;26262;49.836;6.632;2023-04-15T07:55:08;8.10;99.90
39347;DHT22;26262;49.836;6.632;2023-04-15T07:57:35;8.30;99.90
39347;DHT22;26262;49.836;6.632;2023-04-15T08:00:02;8.50;99.90
39347;DHT22;26262;49.836;6.632;2023-04-15T08:02:30;8.60;99.90
39347;DHT22;26262;49.836;6.632;2023-04-15T08:04:56;8.80;99.90
39347;DHT22;26262;49.836;6.632;2023-04-15T08:07:22;9.00;99.90
39347;DHT22;26262;49.836;6.632;2023-04-15T08:09:47;9.10;99.90
39347;DHT22;26262;49.836;6.632;2023-04-15T08:12:13;9.30;99.90
39347;DHT22;26262;49.836;6.632;2023-04-15T08:14:39;9.50;99.90
39347;DHT22;26262;49.836;6.632;2023-04-15T08:17:05;9.60;99.90
39347;DHT22;26262;49.836;6.632;2023-04-15T08:19:31;9.80;99.90
39347;DHT22;26262;49.836;6.632;2023-04-15T08:21:56;10.00;99.90
39347;DHT22;26262;49.836;6.632;2023-04-15T08:24:23;10.20;99.90
39347;DHT22;26262;49.836;6.632;2023-04-15T08:26:50;10.60;99.90
39347;DHT22;26262;49.836;6.632;2023-04-15T08:29:16;10.70;99.90
39347;DHT22;26262;49.836;6.632;2023-04-15T08:31:42;10.80;99.90
39347;DHT22;26262;49.836;6.632;2023-04-15T08:34:07;10.90;99.90
39347;DHT22;26262;49.836;6.632;2023-04-15T08:36:33;11.00;99.90
39347;DHT22;26262;49.836;6.632;2023-04-15T08:38:59;11.10;99.90
39347;DHT22;26262;49.836;6.632;2023-04-15T08:41:38;11.20;99.90
39347;DHT22;26262;49.836;6.632;2023-04-15T08:44:05;11.30;99.90
39347;DHT22;26262;49.836;6.632;2023-04-15T08:46:31;11.50;99.90
39347;DHT22;26262;49.836;6.632;2023-04-15T08:49:03;11.70;99.90
39347;DHT22;26262;49.836;6.632;2023-04-15T08:51:29;11.80;99.90
39347;DHT22;26262;49.836;6.632;2023-04-15T08:53:56;12.20;99.90
39347;DHT22;26262;49.836;6.632;2023-04-15T08:56:24;12.30;99.90
39347;DHT22;26262;49.836;6.632;2023-04-15T08:58:53;12.80;99.90
39347;DHT22;26262;49.836;6.632;2023-04-15T09:01:19;13.00;99.90
39347;DHT22;26262;49.836;6.632;2023-04-15T09:03:47;13.20;99.90
39347;DHT22;26262;49.836;6.632;2023-04-15T09:06:13;13.40;99.90
39347;DHT22;26262;49.836;6.632;2023-04-15T09:08:40;13.70;99.90
39347;DHT22;26262;49.836;6.632;2023-04-15T09:11:05;14.00;98.30
39347;DHT22;26262;49.836;6.632;2023-04-15T09:13:31;14.00;98.40
39347;DHT22;26262;49.836;6.632;2023-04-15T09:15:57;14.30;97.50
39347;DHT22;26262;49.836;6.632;2023-04-15T09:18:33;14.60;99.20
39347;DHT22;26262;49.836;6.632;2023-04-15T09:21:11;14.50;96.30
39347;DHT22;26262;49.836;6.632;2023-04-15T09:23:38;14.50;95.20
39347;DHT22;26262;49.836;6.632;2023-04-15T09:26:04;14.50;96.00
39347;DHT22;26262;49.836;6.632;2023-04-15T09:28:30;14.60;94.40
39347;DHT22;26262;49.836;6.632;2023-04-15T09:30:59;14.60;96.50
39347;DHT22;26262;49.836;6.632;2023-04-15T09:33:26;14.90;94.60
39347;DHT22;26262;49.836;6.632;2023-04-15T09:36:04;15.10;90.90
39347;DHT22;26262;49.836;6.632;2023-04-15T09:38:30;15.30;92.80
39347;DHT22;26262;49.836;6.632;2023-04-15T09:40:57;15.80;92.80
39347;DHT22;26262;49.836;6.632;2023-04-15T09:43:37;16.10;92.40
39347;DHT22;26262;49.836;6.632;2023-04-15T09:46:03;16.50;91.90
39347;DHT22;26262;49.836;6.632;2023-04-15T09:48:30;16.20;86.90
39347;DHT22;26262;49.836;6.632;2023-04-15T09:51:00;15.80;91.10
39347;DHT22;26262;49.836;6.632;2023-04-15T09:53:26;15.60;90.90
39347;DHT22;26262;49.836;6.632;2023-04-15T09:55:56;15.40;90.10
39347;DHT22;26262;49.836;6.632;2023-04-15T09:58:24;15.10;90.20
39347;DHT22;26262;49.836;6.632;2023-04-15T10:00:52;15.00;91.10
39347;DHT22;26262;49.836;6.632;2023-04-15T10:03:20;14.80;91.00
39347;DHT22;26262;49.836;6.632;2023-04-15T10:05:52;14.60;90.90
39347;DHT22;26262;49.836;6.632;2023-04-15T10:08:20;14.60;91.60
39347;DHT22;26262;49.836;6.632;2023-04-15T10:10:47;14.70;91.30
39347;DHT22;26262;49.836;6.632;2023-04-15T10:13:18;14.80;91.60
39347;DHT22;26262;49.836;6.632;2023-04-15T10:15:49;14.80;90.50
39347;DHT22;26262;49.836;6.632;2023-04-15T10:18:18;14.80;90.80
39347;DHT22;26262;49.836;6.632;2023-04-15T10:20:45;14.80;89.30
39347;DHT22;26262;49.836;6.632;2023-04-15T10:23:11;14.80;88.90
39347;DHT22;26262;49.836;6.632;2023-04-15T10:25:37;14.80;88.00
39347;DHT22;26262;49.836;6.632;2023-04-15T10:28:05;15.00;87.70
39347;DHT22;26262;49.836;6.632;2023-04-15T10:30:32;15.00;89.00
39347;DHT22;26262;49.836;6.632;2023-04-15T10:32:59;15.10;86.40
39347;DHT22;26262;49.836;6.632;2023-04-15T10:35:25;15.00;88.60
39347;DHT22;26262;49.836;6.632;2023-04-15T10:37:51;15.20;88.70
39347;DHT22;26262;49.836;6.632;2023-04-15T10:40:30;15.10;83.90
39347;DHT22;26262;49.836;6.632;2023-04-15T10:43:02;15.30;87.00
39347;DHT22;26262;49.836;6.632;2023-04-15T10:45:32;15.40;87.30
39347;DHT22;26262;49.836;6.632;2023-04-15T10:48:01;15.50;84.30
39347;DHT22;26262;49.836;6.632;2023-04-15T10:50:29;15.80;86.20
39347;DHT22;26262;49.836;6.632;2023-04-15T10:52:56;16.60;85.60
39347;DHT22;26262;49.836;6.632;2023-04-15T10:55:26;17.10;85.30
39347;DHT22;26262;49.836;6.632;2023-04-15T10:58:00;17.00;80.80
39347;DHT22;26262;49.836;6.632;2023-04-15T11:00:28;16.80;81.70
39347;DHT22;26262;49.836;6.632;2023-04-15T11:02:56;16.90;81.80
39347;DHT22;26262;49.836;6.632;2023-04-15T11:08:07;17.60;81.20
39347;DHT22;26262;49.836;6.632;2023-04-15T11:15:40;18.20;76.60
39347;DHT22;26262;49.836;6.632;2023-04-15T11:18:18;18.00;78.20
39347;DHT22;26262;49.836;6.632;2023-04-15T11:20:48;17.80;77.70
39347;DHT22;26262;49.836;6.632;2023-04-15T11:23:26;17.90;77.80
39347;DHT22;26262;49.836;6.632;2023-04-15T11:25:54;17.90;78.00
39347;DHT22;26262;49.836;6.632;2023-04-15T11:28:19;17.80;76.60
39347;DHT22;26262;49.836;6.632;2023-04-15T11:30:45;17.70;77.60
39347;DHT22;26262;49.836;6.632;2023-04-15T11:33:11;18.10;79.60
39347;DHT22;26262;49.836;6.632;2023-04-15T11:35:40;18.00;77.40
39347;DHT22;26262;49.836;6.632;2023-04-15T11:38:11;18.00;77.90
39347;DHT22;26262;49.836;6.632;2023-04-15T11:40:38;18.30;81.30
39347;DHT22;26262;49.836;6.632;2023-04-15T11:45:56;18.50;76.20
39347;DHT22;26262;49.836;6.632;2023-04-15T11:48:35;18.10;75.60
39347;DHT22;26262;49.836;6.632;2023-04-15T11:51:03;17.80;71.60
39347;DHT22;26262;49.836;6.632;2023-04-15T11:53:42;17.90;71.90
39347;DHT22;26262;49.836;6.632;2023-04-15T11:56:20;18.00;73.10
39347;DHT22;26262;49.836;6.632;2023-04-15T11:58:46;17.80;70.70
39347;DHT22;26262;49.836;6.632;2023-04-15T12:01:12;17.60;72.00
39347;DHT22;26262;49.836;6.632;2023-04-15T12:03:42;17.70;72.70
39347;DHT22;26262;49.836;6.632;2023-04-15T12:06:21;17.70;69.50
39347;DHT22;26262;49.836;6.632;2023-04-15T12:08:57;17.60;70.40
39347;DHT22;26262;49.836;6.632;2023-04-15T12:13:59;17.20;70.10
39347;DHT22;26262;49.836;6.632;2023-04-15T12:16:27;17.30;72.50
39347;DHT22;26262;49.836;6.632;2023-04-15T12:18:55;17.40;72.80
39347;DHT22;26262;49.836;6.632;2023-04-15T12:21:22;17.40;66.90
39347;DHT22;26262;49.836;6.632;2023-04-15T12:23:52;17.60;69.50
39347;DHT22;26262;49.836;6.632;2023-04-15T12:26:28;17.40;65.00
39347;DHT22;26262;49.836;6.632;2023-04-15T12:29:06;17.30;67.00
39347;DHT22;26262;49.836;6.632;2023-04-15T12:31:34;16.90;66.70
39347;DHT22;26262;49.836;6.632;2023-04-15T12:34:01;17.00;67.10
39347;DHT22;26262;49.836;6.632;2023-04-15T12:36:28;16.40;66.80
39347;DHT22;26262;49.836;6.632;2023-04-15T12:38:56;16.40;68.90
39347;DHT22;26262;49.836;6.632;2023-04-15T12:41:22;16.50;72.20
39347;DHT22;26262;49.836;6.632;2023-04-15T12:43:49;16.50;70.60
39347;DHT22;26262;49.836;6.632;2023-04-15T12:46:15;16.40;70.20
39347;DHT22;26262;49.836;6.632;2023-04-15T12:48:41;16.30;69.60
39347;DHT22;26262;49.836;6.632;2023-04-15T12:51:06;15.90;70.40
39347;DHT22;26262;49.836;6.632;2023-04-15T12:53:32;16.10;71.00
39347;DHT22;26262;49.836;6.632;2023-04-15T12:55:57;16.10;74.60
39347;DHT22;26262;49.836;6.632;2023-04-15T12:58:23;16.20;72.00
39347;DHT22;26262;49.836;6.632;2023-04-15T13:00:49;16.20;72.00
39347;DHT22;26262;49.836;6.632;2023-04-15T13:03:14;16.20;74.30
39347;DHT22;26262;49.836;6.632;2023-04-15T13:05:40;16.50;74.10
39347;DHT22;26262;49.836;6.632;2023-04-15T13:08:06;16.70;75.40
39347;DHT22;26262;49.836;6.632;2023-04-15T13:10:34;16.70;73.70
39347;DHT22;26262;49.836;6.632;2023-04-15T13:13:01;16.60;73.70
39347;DHT22;26262;49.836;6.632;2023-04-15T13:15:28;16.60;72.70
39347;DHT22;26262;49.836;6.632;2023-04-15T13:17:53;16.40;73.10
39347;DHT22;26262;49.836;6.632;2023-04-15T13:20:19;15.90;71.40
39347;DHT22;26262;49.836;6.632;2023-04-15T13:22:44;15.70;74.90
39347;DHT22;26262;49.836;6.632;2023-04-15T13:25:10;15.50;70.30
39347;DHT22;26262;49.836;6.632;2023-04-15T13:27:36;15.50;74.80
39347;DHT22;26262;49.836;6.632;2023-04-15T13:30:02;15.40;71.20
39347;DHT22;26262;49.836;6.632;2023-04-15T13:32:27;15.50;72.70
39347;DHT22;26262;49.836;6.632;2023-04-15T13:34:53;15.50;74.90
39347;DHT22;26262;49.836;6.632;2023-04-15T13:37:25;15.60;76.10
39347;DHT22;26262;49.836;6.632;2023-04-15T13:39:51;15.90;73.70
39347;DHT22;26262;49.836;6.632;2023-04-15T13:42:16;16.10;73.90
39347;DHT22;26262;49.836;6.632;2023-04-15T13:44:42;16.00;75.00
39347;DHT22;26262;49.836;6.632;2023-04-15T13:47:07;16.10;73.10
39347;DHT22;26262;49.836;6.632;2023-04-15T13:49:33;15.80;75.00
39347;DHT22;26262;49.836;6.632;2023-04-15T13:51:58;15.90;74.40
39347;DHT22;26262;49.836;6.632;2023-04-15T13:54:24;16.50;77.30
39347;DHT22;26262;49.836;6.632;2023-04-15T13:56:49;17.40;77.70
39347;DHT22;26262;49.836;6.632;2023-04-15T13:59:15;17.70;78.40
39347;DHT22;26262;49.836;6.632;2023-04-15T14:01:40;18.10;75.00
39347;DHT22;26262;49.836;6.632;2023-04-15T14:04:06;18.40;74.30
39347;DHT22;26262;49.836;6.632;2023-04-15T14:06:31;17.90;75.30
39347;DHT22;26262;49.836;6.632;2023-04-15T14:08:57;17.80;74.80
39347;DHT22;26262;49.836;6.632;2023-04-15T14:11:22;18.00;76.90
39347;DHT22;26262;49.836;6.632;2023-04-15T14:13:48;17.90;75.10
39347;DHT22;26262;49.836;6.632;2023-04-15T14:16:14;17.90;75.00
39347;DHT22;26262;49.836;6.632;2023-04-15T14:18:39;17.60;76.70
39347;DHT22;26262;49.836;6.632;2023-04-15T14:21:05;17.70;77.60
39347;DHT22;26262;49.836;6.632;2023-04-15T14:23:31;18.00;77.40
39347;DHT22;26262;49.836;6.632;2023-04-15T14:25:57;18.00;77.80
39347;DHT22;26262;49.836;6.632;2023-04-15T14:28:23;17.50;75.80
39347;DHT22;26262;49.836;6.632;2023-04-15T14:30:49;17.50;78.20
39347;DHT22;26262;49.836;6.632;2023-04-15T14:33:14;17.40;78.90
39347;DHT22;26262;49.836;6.632;2023-04-15T14:35:40;17.50;79.20
39347;DHT22;26262;49.836;6.632;2023-04-15T14:38:06;17.60;80.10
39347;DHT22;26262;49.836;6.632;2023-04-15T14:40:35;17.90;80.70
39347;DHT22;26262;49.836;6.632;2023-04-15T14:43:00;18.50;79.70
39347;DHT22;26262;49.836;6.632;2023-04-15T14:45:26;18.80;80.60
39347;DHT22;26262;49.836;6.632;2023-04-15T14:47:52;18.60;78.90
39347;DHT22;26262;49.836;6.632;2023-04-15T14:50:17;18.20;81.50
39347;DHT22;26262;49.836;6.632;2023-04-15T14:52:43;18.10;80.80
39347;DHT22;26262;49.836;6.632;2023-04-15T14:55:10;17.60;80.50
39347;DHT22;26262;49.836;6.632;2023-04-15T14:57:37;17.60;80.90
39347;DHT22;26262;49.836;6.632;2023-04-15T15:00:03;17.00;79.80
39347;DHT22;26262;49.836;6.632;2023-04-15T15:02:29;16.80;81.80
39347;DHT22;26262;49.836;6.632;2023-04-15T15:04:56;16.10;82.10
39347;DHT22;26262;49.836;6.632;2023-04-15T15:07:22;16.10;83.50
39347;DHT22;26262;49.836;6.632;2023-04-15T15:09:48;15.90;85.50
39347;DHT22;26262;49.836;6.632;2023-04-15T15:12:13;15.90;83.70
39347;DHT22;26262;49.836;6.632;2023-04-15T15:14:39;15.70;83.10
39347;DHT22;26262;49.836;6.632;2023-04-15T15:17:05;15.70;84.80
39347;DHT22;26262;49.836;6.632;2023-04-15T15:19:30;15.70;86.00
39347;DHT22;26262;49.836;6.632;2023-04-15T15:21:56;15.70;85.70
39347;DHT22;26262;49.836;6.632;2023-04-15T15:24:21;15.60;86.20
39347;DHT22;26262;49.836;6.632;2023-04-15T15:26:47;15.80;86.90
39347;DHT22;26262;49.836;6.632;2023-04-15T15:29:12;15.90;85.10
39347;DHT22;26262;49.836;6.632;2023-04-15T15:31:38;15.90;85.30
39347;DHT22;26262;49.836;6.632;2023-04-15T15:34:03;16.00;86.80
39347;DHT22;26262;49.836;6.632;2023-04-15T15:36:29;16.00;85.30
39347;DHT22;26262;49.836;6.632;2023-04-15T15:38:58;15.90;85.90
39347;DHT22;26262;49.836;6.632;2023-04-15T15:41:24;15.80;86.00
39347;DHT22;26262;49.836;6.632;2023-04-15T15:43:50;15.60;85.80
39347;DHT22;26262;49.836;6.632;2023-04-15T15:46:16;15.50;87.00
39347;DHT22;26262;49.836;6.632;2023-04-15T15:48:42;15.50;87.90